< Typhoon 198525 1985 Season Typhoon 198527 >
Typhoon 198526 (HOPE)
General InformationTrack Information on Google MapsDetailed Wind InformationList of All Images || Disaster Info.ResourceGoogle EarthGE AnimationAtom FeedGeoJSON
Detalied Best Track (Time Zone = UTC)
Year Month Day Hour Lat. Long. Pressure (hPa) Wind (kt) Class Image Chart
1985 12 17 00 8.5 139.5 1002 0 2 Image Chart
1985 12 17 06 9.0 139.0 1000 0 2 Image Chart
1985 12 17 12 9.5 138.5 1002 0 2 Image Chart
1985 12 17 18 10.0 138.0 1000 0 2 Image Chart
1985 12 18 00 10.3 137.7 996 45 3 Image Chart
1985 12 18 06 10.9 137.2 992 50 4 Image Chart
1985 12 18 12 11.1 137.0 985 50 4 Image Chart
1985 12 18 18 11.2 136.8 980 50 4 Image Chart
1985 12 19 00 11.9 136.5 975 60 4 Image Chart
1985 12 19 06 12.7 136.1 965 65 5 Image Chart
1985 12 19 12 13.3 135.5 965 65 5 Image Chart
1985 12 19 18 13.5 135.0 960 65 5 Image Chart
1985 12 20 00 13.6 133.7 960 85 5 Image Chart
1985 12 20 06 13.5 132.4 950 90 5 Image Chart
1985 12 20 12 13.6 131.2 955 90 5 Image Chart
1985 12 20 18 13.6 130.2 960 90 5 Image Chart
1985 12 21 00 13.7 128.8 965 70 5 Image Chart
1985 12 21 06 13.8 128.2 965 70 5 Image Chart
1985 12 21 12 14.0 127.2 970 70 5 Image Chart
1985 12 21 18 14.1 126.3 970 70 5 Image Chart
1985 12 22 00 14.5 125.7 970 70 5 Image Chart
1985 12 22 06 15.2 125.6 975 65 5 Image Chart
1985 12 22 12 16.2 125.7 975 65 5 Image Chart
1985 12 22 18 17.1 126.1 980 65 5 Image Chart
1985 12 23 00 17.9 126.6 980 60 4 Image Chart
1985 12 23 06 18.6 127.4 985 60 4 Image Chart
1985 12 23 12 19.0 128.6 994 60 4 Image Chart
1985 12 23 18 18.6 129.8 998 60 4 Image Chart
1985 12 24 00 18.0 131.0 1000 0 6 Image Chart
1985 12 24 06 18.0 131.5 1008 0 6 Image Chart
1985 12 24 12 18.0 132.0 1010 0 6 Image Chart
1985 12 24 18 18.0 131.5 1010 0 6 Image Chart
1985 12 25 00 18.0 131.0 1012 0 6 Image Chart
1985 12 25 06 17.8 130.5 1012 0 6 Image Chart
1985 12 25 12 17.6 129.8 1012 0 6 Image Chart
1985 12 25 18 17.5 129.0 1012 0 6 Image Chart
Japan Meteorological Agency Best Track Data | Correction Date : 1992-10-21
< Typhoon 198525 1985 Season Typhoon 198527 >

Help